sensor_id;sensor_type;location;lat;lon;timestamp;temperature;humidity
14471;DHT22;7321;50.802;4.336;2022-07-12T00:02:02;20.90;99.90
14471;DHT22;7321;50.802;4.336;2022-07-12T00:04:28;20.90;99.90
14471;DHT22;7321;50.802;4.336;2022-07-12T00:06:54;20.90;99.90
14471;DHT22;7321;50.802;4.336;2022-07-12T00:09:20;20.80;99.90
14471;DHT22;7321;50.802;4.336;2022-07-12T00:11:46;20.80;99.90
14471;DHT22;7321;50.802;4.336;2022-07-12T00:14:12;20.90;99.90
14471;DHT22;7321;50.802;4.336;2022-07-12T00:16:38;20.80;99.90
14471;DHT22;7321;50.802;4.336;2022-07-12T00:19:04;20.70;99.90
14471;DHT22;7321;50.802;4.336;2022-07-12T00:21:29;20.60;99.90
14471;DHT22;7321;50.802;4.336;2022-07-12T00:23:55;20.60;99.90
14471;DHT22;7321;50.802;4.336;2022-07-12T00:26:21;20.50;99.90
14471;DHT22;7321;50.802;4.336;2022-07-12T00:28:48;20.40;99.90
14471;DHT22;7321;50.802;4.336;2022-07-12T00:31:14;20.40;99.90
14471;DHT22;7321;50.802;4.336;2022-07-12T00:33:39;20.30;99.90
14471;DHT22;7321;50.802;4.336;2022-07-12T00:36:05;20.20;99.90
14471;DHT22;7321;50.802;4.336;2022-07-12T00:38:31;20.20;99.90
14471;DHT22;7321;50.802;4.336;2022-07-12T00:40:57;20.30;99.90
14471;DHT22;7321;50.802;4.336;2022-07-12T00:43:23;20.40;99.90
14471;DHT22;7321;50.802;4.336;2022-07-12T00:45:49;20.40;99.90
14471;DHT22;7321;50.802;4.336;2022-07-12T00:48:15;20.30;99.90
14471;DHT22;7321;50.802;4.336;2022-07-12T00:50:45;20.40;99.90
14471;DHT22;7321;50.802;4.336;2022-07-12T00:53:12;20.30;99.90
14471;DHT22;7321;50.802;4.336;2022-07-12T00:55:38;20.40;99.90
14471;DHT22;7321;50.802;4.336;2022-07-12T00:58:04;20.40;99.90
14471;DHT22;7321;50.802;4.336;2022-07-12T01:00:30;20.40;99.90
14471;DHT22;7321;50.802;4.336;2022-07-12T01:02:58;20.30;99.90
14471;DHT22;7321;50.802;4.336;2022-07-12T01:05:27;20.20;99.90
14471;DHT22;7321;50.802;4.336;2022-07-12T01:07:54;20.20;99.90
14471;DHT22;7321;50.802;4.336;2022-07-12T01:10:20;20.10;99.90
14471;DHT22;7321;50.802;4.336;2022-07-12T01:12:46;20.10;99.90
14471;DHT22;7321;50.802;4.336;2022-07-12T01:15:12;20.10;99.90
14471;DHT22;7321;50.802;4.336;2022-07-12T01:17:39;20.20;99.90
14471;DHT22;7321;50.802;4.336;2022-07-12T01:20:06;20.00;99.90
14471;DHT22;7321;50.802;4.336;2022-07-12T01:22:35;20.00;99.90
14471;DHT22;7321;50.802;4.336;2022-07-12T01:25:02;20.00;99.90
14471;DHT22;7321;50.802;4.336;2022-07-12T01:27:29;19.90;99.90
14471;DHT22;7321;50.802;4.336;2022-07-12T01:29:56;19.90;99.90
14471;DHT22;7321;50.802;4.336;2022-07-12T01:32:22;19.90;99.90
14471;DHT22;7321;50.802;4.336;2022-07-12T01:34:52;19.80;99.90
14471;DHT22;7321;50.802;4.336;2022-07-12T01:37:19;19.80;99.90
14471;DHT22;7321;50.802;4.336;2022-07-12T01:39:47;19.70;99.90
14471;DHT22;7321;50.802;4.336;2022-07-12T01:42:13;19.60;99.90
14471;DHT22;7321;50.802;4.336;2022-07-12T01:44:40;19.60;99.90
14471;DHT22;7321;50.802;4.336;2022-07-12T01:47:06;19.40;99.90
14471;DHT22;7321;50.802;4.336;2022-07-12T01:49:32;19.50;99.90
14471;DHT22;7321;50.802;4.336;2022-07-12T01:51:58;19.50;99.90
14471;DHT22;7321;50.802;4.336;2022-07-12T01:54:25;19.40;99.90
14471;DHT22;7321;50.802;4.336;2022-07-12T01:56:54;19.40;99.90
14471;DHT22;7321;50.802;4.336;2022-07-12T01:59:20;19.30;99.90
14471;DHT22;7321;50.802;4.336;2022-07-12T02:01:46;19.30;99.90
14471;DHT22;7321;50.802;4.336;2022-07-12T02:04:16;19.40;99.90
14471;DHT22;7321;50.802;4.336;2022-07-12T02:06:44;19.30;99.90
14471;DHT22;7321;50.802;4.336;2022-07-12T02:09:11;19.50;99.90
14471;DHT22;7321;50.802;4.336;2022-07-12T02:11:36;19.50;99.90
14471;DHT22;7321;50.802;4.336;2022-07-12T02:14:02;19.50;99.90
14471;DHT22;7321;50.802;4.336;2022-07-12T02:16:28;19.60;99.90
14471;DHT22;7321;50.802;4.336;2022-07-12T02:18:54;19.50;99.90
14471;DHT22;7321;50.802;4.336;2022-07-12T02:21:21;19.40;99.90
14471;DHT22;7321;50.802;4.336;2022-07-12T02:23:46;19.40;99.90
14471;DHT22;7321;50.802;4.336;2022-07-12T02:26:12;19.40;99.90
14471;DHT22;7321;50.802;4.336;2022-07-12T02:28:38;19.40;99.90
14471;DHT22;7321;50.802;4.336;2022-07-12T02:31:04;19.40;99.90
14471;DHT22;7321;50.802;4.336;2022-07-12T02:33:30;19.40;99.90
14471;DHT22;7321;50.802;4.336;2022-07-12T02:35:56;19.30;99.90
14471;DHT22;7321;50.802;4.336;2022-07-12T02:38:22;19.10;99.90
14471;DHT22;7321;50.802;4.336;2022-07-12T02:40:48;19.10;99.90
14471;DHT22;7321;50.802;4.336;2022-07-12T02:43:25;19.10;99.90
14471;DHT22;7321;50.802;4.336;2022-07-12T02:45:53;19.10;99.90
14471;DHT22;7321;50.802;4.336;2022-07-12T02:48:19;19.10;99.90
14471;DHT22;7321;50.802;4.336;2022-07-12T02:50:46;19.00;99.90
14471;DHT22;7321;50.802;4.336;2022-07-12T02:53:12;19.00;99.90
14471;DHT22;7321;50.802;4.336;2022-07-12T02:55:41;19.20;99.90
14471;DHT22;7321;50.802;4.336;2022-07-12T02:58:07;19.20;99.90
14471;DHT22;7321;50.802;4.336;2022-07-12T03:00:34;19.20;99.90
14471;DHT22;7321;50.802;4.336;2022-07-12T03:03:04;19.20;99.90
14471;DHT22;7321;50.802;4.336;2022-07-12T03:05:30;19.20;99.90
14471;DHT22;7321;50.802;4.336;2022-07-12T03:07:55;19.30;99.90
14471;DHT22;7321;50.802;4.336;2022-07-12T03:10:21;19.30;99.90
14471;DHT22;7321;50.802;4.336;2022-07-12T03:12:48;19.30;99.90
14471;DHT22;7321;50.802;4.336;2022-07-12T03:15:13;19.30;99.90
14471;DHT22;7321;50.802;4.336;2022-07-12T03:17:39;19.30;99.90
14471;DHT22;7321;50.802;4.336;2022-07-12T03:20:05;19.30;99.90
14471;DHT22;7321;50.802;4.336;2022-07-12T03:22:34;19.40;99.90
14471;DHT22;7321;50.802;4.336;2022-07-12T03:25:00;19.50;99.90
14471;DHT22;7321;50.802;4.336;2022-07-12T03:27:25;19.30;99.90
14471;DHT22;7321;50.802;4.336;2022-07-12T03:29:51;19.30;99.90
14471;DHT22;7321;50.802;4.336;2022-07-12T03:32:17;19.30;99.90
14471;DHT22;7321;50.802;4.336;2022-07-12T03:34:42;19.20;99.90
14471;DHT22;7321;50.802;4.336;2022-07-12T03:37:08;19.30;99.90
14471;DHT22;7321;50.802;4.336;2022-07-12T03:39:34;19.30;99.90
14471;DHT22;7321;50.802;4.336;2022-07-12T03:42:00;19.30;99.90
14471;DHT22;7321;50.802;4.336;2022-07-12T03:44:25;19.30;99.90
14471;DHT22;7321;50.802;4.336;2022-07-12T03:46:51;19.30;99.90
14471;DHT22;7321;50.802;4.336;2022-07-12T03:49:17;19.20;99.90
14471;DHT22;7321;50.802;4.336;2022-07-12T03:51:42;19.20;99.90
14471;DHT22;7321;50.802;4.336;2022-07-12T03:54:08;19.30;99.90
14471;DHT22;7321;50.802;4.336;2022-07-12T03:56:35;19.20;99.90
14471;DHT22;7321;50.802;4.336;2022-07-12T03:59:19;19.20;99.90
14471;DHT22;7321;50.802;4.336;2022-07-12T04:01:45;19.10;99.90
14471;DHT22;7321;50.802;4.336;2022-07-12T04:04:14;19.10;99.90
14471;DHT22;7321;50.802;4.336;2022-07-12T04:06:39;19.10;99.90
14471;DHT22;7321;50.802;4.336;2022-07-12T04:09:08;19.10;99.90
14471;DHT22;7321;50.802;4.336;2022-07-12T04:11:34;19.10;99.90
14471;DHT22;7321;50.802;4.336;2022-07-12T04:14:00;19.20;99.90
14471;DHT22;7321;50.802;4.336;2022-07-12T04:16:26;19.10;99.90
14471;DHT22;7321;50.802;4.336;2022-07-12T04:18:52;19.20;99.90
14471;DHT22;7321;50.802;4.336;2022-07-12T04:21:19;19.30;99.90
14471;DHT22;7321;50.802;4.336;2022-07-12T04:23:45;19.40;99.90
14471;DHT22;7321;50.802;4.336;2022-07-12T04:26:11;19.50;99.90
14471;DHT22;7321;50.802;4.336;2022-07-12T04:28:37;19.50;99.90
14471;DHT22;7321;50.802;4.336;2022-07-12T04:31:03;19.50;99.90
14471;DHT22;7321;50.802;4.336;2022-07-12T04:33:29;19.50;99.90
14471;DHT22;7321;50.802;4.336;2022-07-12T04:35:54;19.50;99.90
14471;DHT22;7321;50.802;4.336;2022-07-12T04:38:20;19.50;99.90
14471;DHT22;7321;50.802;4.336;2022-07-12T04:40:46;19.60;99.90
14471;DHT22;7321;50.802;4.336;2022-07-12T04:43:12;19.60;99.90
14471;DHT22;7321;50.802;4.336;2022-07-12T04:45:37;19.70;99.90
14471;DHT22;7321;50.802;4.336;2022-07-12T04:48:03;19.60;99.90
14471;DHT22;7321;50.802;4.336;2022-07-12T04:50:29;19.70;99.90
14471;DHT22;7321;50.802;4.336;2022-07-12T04:52:55;19.80;99.90
14471;DHT22;7321;50.802;4.336;2022-07-12T04:55:21;19.90;99.90
14471;DHT22;7321;50.802;4.336;2022-07-12T04:57:46;19.90;99.90
14471;DHT22;7321;50.802;4.336;2022-07-12T05:00:12;19.90;99.90
14471;DHT22;7321;50.802;4.336;2022-07-12T05:02:39;19.90;99.90
14471;DHT22;7321;50.802;4.336;2022-07-12T05:05:05;20.00;99.90
14471;DHT22;7321;50.802;4.336;2022-07-12T05:07:31;20.20;99.90
14471;DHT22;7321;50.802;4.336;2022-07-12T05:09:56;20.20;99.90
14471;DHT22;7321;50.802;4.336;2022-07-12T05:12:22;20.30;99.90
14471;DHT22;7321;50.802;4.336;2022-07-12T05:14:48;20.40;99.90
14471;DHT22;7321;50.802;4.336;2022-07-12T05:17:13;20.50;99.90
14471;DHT22;7321;50.802;4.336;2022-07-12T05:19:39;20.60;99.90
14471;DHT22;7321;50.802;4.336;2022-07-12T05:22:05;20.60;99.90
14471;DHT22;7321;50.802;4.336;2022-07-12T05:24:31;20.60;99.90
14471;DHT22;7321;50.802;4.336;2022-07-12T05:26:57;20.80;99.90
14471;DHT22;7321;50.802;4.336;2022-07-12T05:29:23;20.90;99.90
14471;DHT22;7321;50.802;4.336;2022-07-12T05:31:49;21.00;99.90
14471;DHT22;7321;50.802;4.336;2022-07-12T05:34:14;21.00;99.90
14471;DHT22;7321;50.802;4.336;2022-07-12T05:36:40;21.10;99.90
14471;DHT22;7321;50.802;4.336;2022-07-12T05:39:06;21.10;99.90
14471;DHT22;7321;50.802;4.336;2022-07-12T05:41:32;21.30;99.90
14471;DHT22;7321;50.802;4.336;2022-07-12T05:43:58;21.40;99.90
14471;DHT22;7321;50.802;4.336;2022-07-12T05:46:24;21.60;99.90
14471;DHT22;7321;50.802;4.336;2022-07-12T05:48:50;21.80;99.90
14471;DHT22;7321;50.802;4.336;2022-07-12T05:51:18;21.90;99.90
14471;DHT22;7321;50.802;4.336;2022-07-12T05:54:04;22.00;99.90
14471;DHT22;7321;50.802;4.336;2022-07-12T05:56:30;22.10;99.90
14471;DHT22;7321;50.802;4.336;2022-07-12T05:58:55;22.20;99.90
14471;DHT22;7321;50.802;4.336;2022-07-12T06:01:21;22.30;99.90
14471;DHT22;7321;50.802;4.336;2022-07-12T06:03:47;22.40;99.90
14471;DHT22;7321;50.802;4.336;2022-07-12T06:06:13;22.40;99.90
14471;DHT22;7321;50.802;4.336;2022-07-12T06:08:39;22.40;99.90
14471;DHT22;7321;50.802;4.336;2022-07-12T06:11:04;22.40;99.90
14471;DHT22;7321;50.802;4.336;2022-07-12T06:13:30;22.40;99.90
14471;DHT22;7321;50.802;4.336;2022-07-12T06:15:56;22.40;99.90
14471;DHT22;7321;50.802;4.336;2022-07-12T06:18:22;22.50;99.90
14471;DHT22;7321;50.802;4.336;2022-07-12T06:20:48;22.60;99.90
14471;DHT22;7321;50.802;4.336;2022-07-12T06:23:13;22.80;99.90
14471;DHT22;7321;50.802;4.336;2022-07-12T06:25:40;22.80;99.90
14471;DHT22;7321;50.802;4.336;2022-07-12T06:28:05;22.80;99.90
14471;DHT22;7321;50.802;4.336;2022-07-12T06:30:31;22.80;99.90
14471;DHT22;7321;50.802;4.336;2022-07-12T06:32:57;22.60;99.90
14471;DHT22;7321;50.802;4.336;2022-07-12T06:35:23;22.70;99.90
14471;DHT22;7321;50.802;4.336;2022-07-12T06:37:49;22.70;99.90
14471;DHT22;7321;50.802;4.336;2022-07-12T06:40:14;22.60;99.90
14471;DHT22;7321;50.802;4.336;2022-07-12T06:42:43;22.70;99.90
14471;DHT22;7321;50.802;4.336;2022-07-12T06:45:09;22.80;99.90
14471;DHT22;7321;50.802;4.336;2022-07-12T06:47:36;22.90;99.90
14471;DHT22;7321;50.802;4.336;2022-07-12T06:50:02;23.10;99.90
14471;DHT22;7321;50.802;4.336;2022-07-12T06:52:28;23.10;99.90
14471;DHT22;7321;50.802;4.336;2022-07-12T06:54:56;23.20;99.90
14471;DHT22;7321;50.802;4.336;2022-07-12T06:57:21;23.20;99.90
14471;DHT22;7321;50.802;4.336;2022-07-12T06:59:47;23.30;99.90
14471;DHT22;7321;50.802;4.336;2022-07-12T07:02:14;23.30;99.90
14471;DHT22;7321;50.802;4.336;2022-07-12T07:04:40;23.40;99.90
14471;DHT22;7321;50.802;4.336;2022-07-12T07:07:06;23.40;99.90
14471;DHT22;7321;50.802;4.336;2022-07-12T07:09:32;23.40;99.90
14471;DHT22;7321;50.802;4.336;2022-07-12T07:12:00;23.50;99.90
14471;DHT22;7321;50.802;4.336;2022-07-12T07:14:26;23.70;99.90
14471;DHT22;7321;50.802;4.336;2022-07-12T07:16:55;23.80;99.90
14471;DHT22;7321;50.802;4.336;2022-07-12T07:19:22;24.00;99.90
14471;DHT22;7321;50.802;4.336;2022-07-12T07:21:50;24.00;99.90
14471;DHT22;7321;50.802;4.336;2022-07-12T07:24:16;24.30;99.90
14471;DHT22;7321;50.802;4.336;2022-07-12T07:26:42;24.40;99.90
14471;DHT22;7321;50.802;4.336;2022-07-12T07:29:08;24.70;99.90
14471;DHT22;7321;50.802;4.336;2022-07-12T07:31:52;24.90;99.90
14471;DHT22;7321;50.802;4.336;2022-07-12T07:34:18;25.00;99.90
14471;DHT22;7321;50.802;4.336;2022-07-12T07:36:44;25.00;99.90
14471;DHT22;7321;50.802;4.336;2022-07-12T07:39:09;25.20;99.90
14471;DHT22;7321;50.802;4.336;2022-07-12T07:41:37;25.20;99.90
14471;DHT22;7321;50.802;4.336;2022-07-12T07:44:03;25.40;99.90
14471;DHT22;7321;50.802;4.336;2022-07-12T07:46:29;25.60;99.90
14471;DHT22;7321;50.802;4.336;2022-07-12T07:48:54;25.60;99.90
14471;DHT22;7321;50.802;4.336;2022-07-12T07:51:20;25.50;99.90
14471;DHT22;7321;50.802;4.336;2022-07-12T07:53:46;25.10;99.90
14471;DHT22;7321;50.802;4.336;2022-07-12T07:56:12;24.90;99.90
14471;DHT22;7321;50.802;4.336;2022-07-12T07:58:37;24.80;99.90
14471;DHT22;7321;50.802;4.336;2022-07-12T08:01:03;25.00;99.90
14471;DHT22;7321;50.802;4.336;2022-07-12T08:03:29;25.20;99.90
14471;DHT22;7321;50.802;4.336;2022-07-12T08:05:55;25.30;99.90
14471;DHT22;7321;50.802;4.336;2022-07-12T08:08:23;25.60;99.90
14471;DHT22;7321;50.802;4.336;2022-07-12T08:10:50;25.90;99.90
14471;DHT22;7321;50.802;4.336;2022-07-12T08:13:16;25.90;99.90
14471;DHT22;7321;50.802;4.336;2022-07-12T08:15:42;25.90;99.90
14471;DHT22;7321;50.802;4.336;2022-07-12T08:18:08;26.10;99.90
14471;DHT22;7321;50.802;4.336;2022-07-12T08:20:33;26.20;99.90
14471;DHT22;7321;50.802;4.336;2022-07-12T08:22:59;26.20;99.90
14471;DHT22;7321;50.802;4.336;2022-07-12T08:25:25;26.10;99.90
14471;DHT22;7321;50.802;4.336;2022-07-12T08:27:51;26.20;99.90
14471;DHT22;7321;50.802;4.336;2022-07-12T08:30:17;26.30;99.90
14471;DHT22;7321;50.802;4.336;2022-07-12T08:32:44;26.40;99.90
14471;DHT22;7321;50.802;4.336;2022-07-12T08:35:10;26.50;99.90
14471;DHT22;7321;50.802;4.336;2022-07-12T08:37:35;26.50;99.90
14471;DHT22;7321;50.802;4.336;2022-07-12T08:40:02;26.60;99.90
14471;DHT22;7321;50.802;4.336;2022-07-12T08:42:28;26.70;99.90
14471;DHT22;7321;50.802;4.336;2022-07-12T08:44:54;26.70;99.90
14471;DHT22;7321;50.802;4.336;2022-07-12T08:47:21;26.70;99.90
14471;DHT22;7321;50.802;4.336;2022-07-12T08:52:42;26.90;99.90
14471;DHT22;7321;50.802;4.336;2022-07-12T08:55:18;26.90;99.90
14471;DHT22;7321;50.802;4.336;2022-07-12T08:57:45;27.00;99.90
14471;DHT22;7321;50.802;4.336;2022-07-12T09:00:12;27.20;99.90
14471;DHT22;7321;50.802;4.336;2022-07-12T09:02:57;27.10;99.90
14471;DHT22;7321;50.802;4.336;2022-07-12T09:05:26;27.10;99.90
14471;DHT22;7321;50.802;4.336;2022-07-12T09:10:31;27.40;99.90
14471;DHT22;7321;50.802;4.336;2022-07-12T09:12:57;27.70;99.90
14471;DHT22;7321;50.802;4.336;2022-07-12T09:15:24;27.90;99.90
14471;DHT22;7321;50.802;4.336;2022-07-12T09:18:05;27.80;99.90
14471;DHT22;7321;50.802;4.336;2022-07-12T09:20:39;27.80;99.90
14471;DHT22;7321;50.802;4.336;2022-07-12T09:23:10;27.60;99.90
14471;DHT22;7321;50.802;4.336;2022-07-12T09:25:37;27.70;99.90
14471;DHT22;7321;50.802;4.336;2022-07-12T09:28:06;27.70;99.90
14471;DHT22;7321;50.802;4.336;2022-07-12T09:30:33;27.60;99.90
14471;DHT22;7321;50.802;4.336;2022-07-12T09:33:06;27.40;99.90
14471;DHT22;7321;50.802;4.336;2022-07-12T09:38:36;27.70;99.90
14471;DHT22;7321;50.802;4.336;2022-07-12T09:41:04;27.70;99.90
14471;DHT22;7321;50.802;4.336;2022-07-12T09:43:30;27.90;99.90
14471;DHT22;7321;50.802;4.336;2022-07-12T09:45:56;27.80;99.90
14471;DHT22;7321;50.802;4.336;2022-07-12T09:48:23;28.00;99.90
14471;DHT22;7321;50.802;4.336;2022-07-12T09:50:51;28.10;99.90
14471;DHT22;7321;50.802;4.336;2022-07-12T09:53:42;28.20;99.90
14471;DHT22;7321;50.802;4.336;2022-07-12T09:56:10;28.40;99.90
14471;DHT22;7321;50.802;4.336;2022-07-12T09:58:40;28.70;99.90
14471;DHT22;7321;50.802;4.336;2022-07-12T10:01:07;28.70;99.90
14471;DHT22;7321;50.802;4.336;2022-07-12T10:03:35;28.60;99.90
14471;DHT22;7321;50.802;4.336;2022-07-12T10:06:02;28.70;99.90
14471;DHT22;7321;50.802;4.336;2022-07-12T10:08:29;28.80;99.90
14471;DHT22;7321;50.802;4.336;2022-07-12T10:10:56;29.00;99.90
14471;DHT22;7321;50.802;4.336;2022-07-12T10:13:23;29.20;99.90
14471;DHT22;7321;50.802;4.336;2022-07-12T10:15:50;29.20;99.90
14471;DHT22;7321;50.802;4.336;2022-07-12T10:18:20;29.10;99.90
14471;DHT22;7321;50.802;4.336;2022-07-12T10:20:49;29.30;99.90
14471;DHT22;7321;50.802;4.336;2022-07-12T10:23:36;29.30;99.90
14471;DHT22;7321;50.802;4.336;2022-07-12T10:29:03;29.70;99.90
14471;DHT22;7321;50.802;4.336;2022-07-12T10:31:34;29.80;99.90
14471;DHT22;7321;50.802;4.336;2022-07-12T10:34:23;29.80;99.90
14471;DHT22;7321;50.802;4.336;2022-07-12T10:37:09;29.90;99.90
14471;DHT22;7321;50.802;4.336;2022-07-12T10:39:35;30.10;99.90
14471;DHT22;7321;50.802;4.336;2022-07-12T10:42:13;30.10;99.90
14471;DHT22;7321;50.802;4.336;2022-07-12T10:44:41;30.20;99.90
14471;DHT22;7321;50.802;4.336;2022-07-12T10:47:10;30.20;99.90
14471;DHT22;7321;50.802;4.336;2022-07-12T10:49:46;30.40;99.90
14471;DHT22;7321;50.802;4.336;2022-07-12T10:52:13;30.50;99.90
14471;DHT22;7321;50.802;4.336;2022-07-12T10:54:46;30.80;99.90
14471;DHT22;7321;50.802;4.336;2022-07-12T10:57:26;30.70;99.90
14471;DHT22;7321;50.802;4.336;2022-07-12T11:00:03;30.90;99.90
14471;DHT22;7321;50.802;4.336;2022-07-12T11:02:30;30.90;99.90
14471;DHT22;7321;50.802;4.336;2022-07-12T11:04:57;30.90;99.90
14471;DHT22;7321;50.802;4.336;2022-07-12T11:07:23;31.10;99.90
14471;DHT22;7321;50.802;4.336;2022-07-12T11:09:54;31.30;99.90
14471;DHT22;7321;50.802;4.336;2022-07-12T11:12:26;31.10;99.90
14471;DHT22;7321;50.802;4.336;2022-07-12T11:14:52;31.20;99.90
14471;DHT22;7321;50.802;4.336;2022-07-12T11:17:24;31.30;99.90
14471;DHT22;7321;50.802;4.336;2022-07-12T11:20:06;31.20;99.90
14471;DHT22;7321;50.802;4.336;2022-07-12T11:22:34;30.90;99.90
14471;DHT22;7321;50.802;4.336;2022-07-12T11:25:00;31.00;99.90
14471;DHT22;7321;50.802;4.336;2022-07-12T11:27:27;31.00;99.90
14471;DHT22;7321;50.802;4.336;2022-07-12T11:30:00;31.00;99.90
14471;DHT22;7321;50.802;4.336;2022-07-12T11:32:40;30.70;99.90
14471;DHT22;7321;50.802;4.336;2022-07-12T11:35:20;30.80;99.90
14471;DHT22;7321;50.802;4.336;2022-07-12T11:37:51;30.90;99.90
14471;DHT22;7321;50.802;4.336;2022-07-12T11:40:24;31.10;99.90
14471;DHT22;7321;50.802;4.336;2022-07-12T11:43:09;31.30;99.90
14471;DHT22;7321;50.802;4.336;2022-07-12T11:45:34;31.30;99.90
14471;DHT22;7321;50.802;4.336;2022-07-12T11:48:02;31.10;99.90
14471;DHT22;7321;50.802;4.336;2022-07-12T11:50:29;31.00;99.90
14471;DHT22;7321;50.802;4.336;2022-07-12T11:52:55;30.90;99.90
14471;DHT22;7321;50.802;4.336;2022-07-12T11:55:21;30.80;99.90
14471;DHT22;7321;50.802;4.336;2022-07-12T11:57:47;30.50;99.90
14471;DHT22;7321;50.802;4.336;2022-07-12T12:00:22;30.30;99.90
14471;DHT22;7321;50.802;4.336;2022-07-12T12:02:52;30.20;99.90
14471;DHT22;7321;50.802;4.336;2022-07-12T12:05:19;30.20;99.90
14471;DHT22;7321;50.802;4.336;2022-07-12T12:07:46;30.20;99.90
14471;DHT22;7321;50.802;4.336;2022-07-12T12:10:13;30.50;99.90
14471;DHT22;7321;50.802;4.336;2022-07-12T12:12:57;30.60;99.90
14471;DHT22;7321;50.802;4.336;2022-07-12T12:15:26;30.70;99.90
14471;DHT22;7321;50.802;4.336;2022-07-12T12:20:29;30.90;99.90
14471;DHT22;7321;50.802;4.336;2022-07-12T12:22:57;31.10;99.90
14471;DHT22;7321;50.802;4.336;2022-07-12T12:25:24;31.20;99.90
14471;DHT22;7321;50.802;4.336;2022-07-12T12:27:57;31.20;99.90
14471;DHT22;7321;50.802;4.336;2022-07-12T12:30:24;31.00;99.90
14471;DHT22;7321;50.802;4.336;2022-07-12T12:32:52;30.90;99.90
14471;DHT22;7321;50.802;4.336;2022-07-12T12:35:32;30.80;99.90
14471;DHT22;7321;50.802;4.336;2022-07-12T12:38:11;31.00;99.90
14471;DHT22;7321;50.802;4.336;2022-07-12T12:40:37;31.10;99.20
14471;DHT22;7321;50.802;4.336;2022-07-12T12:43:13;31.20;99.00
14471;DHT22;7321;50.802;4.336;2022-07-12T12:45:53;31.20;98.40
14471;DHT22;7321;50.802;4.336;2022-07-12T12:48:20;31.30;98.30
14471;DHT22;7321;50.802;4.336;2022-07-12T12:50:48;31.40;98.80
14471;DHT22;7321;50.802;4.336;2022-07-12T12:53:22;31.60;98.50
14471;DHT22;7321;50.802;4.336;2022-07-12T12:55:50;31.70;97.60
14471;DHT22;7321;50.802;4.336;2022-07-12T12:58:16;31.70;96.60
14471;DHT22;7321;50.802;4.336;2022-07-12T13:00:44;31.80;96.80
14471;DHT22;7321;50.802;4.336;2022-07-12T13:03:11;31.80;97.00
14471;DHT22;7321;50.802;4.336;2022-07-12T13:05:38;31.90;97.20
14471;DHT22;7321;50.802;4.336;2022-07-12T13:08:06;31.90;96.60
14471;DHT22;7321;50.802;4.336;2022-07-12T13:10:32;31.80;96.40
14471;DHT22;7321;50.802;4.336;2022-07-12T13:12:58;31.80;96.20
14471;DHT22;7321;50.802;4.336;2022-07-12T13:15:25;32.00;95.40
14471;DHT22;7321;50.802;4.336;2022-07-12T13:17:51;32.10;95.00
14471;DHT22;7321;50.802;4.336;2022-07-12T13:20:17;32.20;93.80
14471;DHT22;7321;50.802;4.336;2022-07-12T13:22:43;32.20;92.20
14471;DHT22;7321;50.802;4.336;2022-07-12T13:25:13;32.40;92.00
14471;DHT22;7321;50.802;4.336;2022-07-12T13:27:40;32.50;91.80
14471;DHT22;7321;50.802;4.336;2022-07-12T13:30:08;32.60;91.70
14471;DHT22;7321;50.802;4.336;2022-07-12T13:32:35;32.60;91.70
14471;DHT22;7321;50.802;4.336;2022-07-12T13:35:03;32.80;92.50
14471;DHT22;7321;50.802;4.336;2022-07-12T13:37:28;32.90;93.50
14471;DHT22;7321;50.802;4.336;2022-07-12T13:39:54;32.90;93.80
14471;DHT22;7321;50.802;4.336;2022-07-12T13:42:43;32.70;92.40
14471;DHT22;7321;50.802;4.336;2022-07-12T13:45:10;32.60;92.20
14471;DHT22;7321;50.802;4.336;2022-07-12T13:47:37;32.60;92.10
14471;DHT22;7321;50.802;4.336;2022-07-12T13:50:04;32.60;91.20
14471;DHT22;7321;50.802;4.336;2022-07-12T13:52:30;32.60;91.70
14471;DHT22;7321;50.802;4.336;2022-07-12T13:54:56;32.60;90.80
14471;DHT22;7321;50.802;4.336;2022-07-12T13:57:22;32.70;91.00
14471;DHT22;7321;50.802;4.336;2022-07-12T13:59:48;32.60;90.80
14471;DHT22;7321;50.802;4.336;2022-07-12T14:02:13;32.50;90.00
14471;DHT22;7321;50.802;4.336;2022-07-12T14:04:39;32.50;90.30
14471;DHT22;7321;50.802;4.336;2022-07-12T14:07:05;32.40;88.00
14471;DHT22;7321;50.802;4.336;2022-07-12T14:09:31;32.20;86.50
14471;DHT22;7321;50.802;4.336;2022-07-12T14:11:56;32.20;85.90
14471;DHT22;7321;50.802;4.336;2022-07-12T14:14:23;32.00;85.80
14471;DHT22;7321;50.802;4.336;2022-07-12T14:17:11;32.00;86.60
14471;DHT22;7321;50.802;4.336;2022-07-12T14:19:37;31.90;86.40
14471;DHT22;7321;50.802;4.336;2022-07-12T14:22:03;31.90;86.00
14471;DHT22;7321;50.802;4.336;2022-07-12T14:24:29;31.80;86.50
14471;DHT22;7321;50.802;4.336;2022-07-12T14:26:55;31.90;86.80
14471;DHT22;7321;50.802;4.336;2022-07-12T14:29:20;31.90;86.10
14471;DHT22;7321;50.802;4.336;2022-07-12T14:31:49;31.70;86.90
14471;DHT22;7321;50.802;4.336;2022-07-12T14:34:15;31.50;89.50
14471;DHT22;7321;50.802;4.336;2022-07-12T14:36:41;31.60;89.50
14471;DHT22;7321;50.802;4.336;2022-07-12T14:39:07;31.50;87.50
14471;DHT22;7321;50.802;4.336;2022-07-12T14:41:32;31.70;88.10
14471;DHT22;7321;50.802;4.336;2022-07-12T14:43:58;31.60;88.00
14471;DHT22;7321;50.802;4.336;2022-07-12T14:46:25;31.70;85.80
14471;DHT22;7321;50.802;4.336;2022-07-12T14:48:50;31.70;84.60
14471;DHT22;7321;50.802;4.336;2022-07-12T14:51:16;31.80;84.80
14471;DHT22;7321;50.802;4.336;2022-07-12T14:53:42;31.90;81.50
14471;DHT22;7321;50.802;4.336;2022-07-12T14:56:08;32.00;80.80
14471;DHT22;7321;50.802;4.336;2022-07-12T14:58:34;32.20;80.30
14471;DHT22;7321;50.802;4.336;2022-07-12T15:00:59;32.40;78.60
14471;DHT22;7321;50.802;4.336;2022-07-12T15:03:28;32.80;75.20
14471;DHT22;7321;50.802;4.336;2022-07-12T15:05:54;33.20;76.50
14471;DHT22;7321;50.802;4.336;2022-07-12T15:08:20;33.40;75.20
14471;DHT22;7321;50.802;4.336;2022-07-12T15:10:45;33.60;75.20
14471;DHT22;7321;50.802;4.336;2022-07-12T15:13:11;33.90;74.00
14471;DHT22;7321;50.802;4.336;2022-07-12T15:15:37;33.80;74.00
14471;DHT22;7321;50.802;4.336;2022-07-12T15:18:03;34.10;73.80
14471;DHT22;7321;50.802;4.336;2022-07-12T15:20:28;34.00;71.00
14471;DHT22;7321;50.802;4.336;2022-07-12T15:22:54;34.10;70.60
14471;DHT22;7321;50.802;4.336;2022-07-12T15:25:20;34.20;70.60
14471;DHT22;7321;50.802;4.336;2022-07-12T15:27:45;34.10;65.90
14471;DHT22;7321;50.802;4.336;2022-07-12T15:30:11;34.20;66.30
14471;DHT22;7321;50.802;4.336;2022-07-12T15:32:37;34.10;65.60
14471;DHT22;7321;50.802;4.336;2022-07-12T15:35:04;34.20;63.30
14471;DHT22;7321;50.802;4.336;2022-07-12T15:37:30;34.50;65.00
14471;DHT22;7321;50.802;4.336;2022-07-12T15:39:56;34.90;63.80
14471;DHT22;7321;50.802;4.336;2022-07-12T15:42:21;35.00;59.90
14471;DHT22;7321;50.802;4.336;2022-07-12T15:44:47;35.00;60.10
14471;DHT22;7321;50.802;4.336;2022-07-12T15:47:13;35.00;59.50
14471;DHT22;7321;50.802;4.336;2022-07-12T15:49:40;35.20;59.30
14471;DHT22;7321;50.802;4.336;2022-07-12T15:52:06;35.10;58.60
14471;DHT22;7321;50.802;4.336;2022-07-12T15:54:58;35.20;59.40
14471;DHT22;7321;50.802;4.336;2022-07-12T15:57:24;35.00;58.20
14471;DHT22;7321;50.802;4.336;2022-07-12T15:59:50;34.90;59.20
14471;DHT22;7321;50.802;4.336;2022-07-12T16:02:16;34.80;57.00